createdAt,value
2022-10-28T00:01:26.637Z,101443.77
2022-10-28T00:03:57.980Z,101440.77
2022-10-28T00:06:36.862Z,101446.99
2022-10-28T00:09:08.182Z,101442.20
2022-10-28T00:11:39.190Z,101445.21
2022-10-28T00:14:07.883Z,101445.76
2022-10-28T00:16:37.951Z,101442.90
2022-10-28T00:19:08.119Z,101444.51
2022-10-28T00:21:38.662Z,101442.56
2022-10-28T00:24:07.894Z,101440.44
2022-10-28T00:26:38.049Z,101437.43
2022-10-28T00:29:12.703Z,101437.08
2022-10-28T00:31:43.826Z,101437.40
2022-10-28T00:34:15.718Z,101432.85
2022-10-28T00:36:45.347Z,101430.59
2022-10-28T00:39:19.797Z,101422.42
2022-10-28T00:41:50.782Z,101416.21
2022-10-28T00:44:37.516Z,101417.95
2022-10-28T00:47:17.716Z,101418.19
2022-10-28T00:49:49.706Z,101416.23
2022-10-28T00:52:22.781Z,101412.79
2022-10-28T00:54:52.689Z,101414.77
2022-10-28T00:57:26.102Z,101419.10
2022-10-28T00:59:55.206Z,101416.39
2022-10-28T01:02:23.183Z,101415.23
2022-10-28T01:04:51.233Z,101412.91
2022-10-28T01:07:19.724Z,101412.94
2022-10-28T01:09:47.820Z,101412.42
2022-10-28T01:12:21.604Z,101412.84
2022-10-28T01:15:09.868Z,101412.20
2022-10-28T01:18:15.151Z,101414.14
2022-10-28T01:21:03.198Z,101410.44
2022-10-28T01:23:53.181Z,101406.54
2022-10-28T01:26:31.209Z,101404.31
2022-10-28T01:29:41.746Z,101407.86
2022-10-28T01:32:33.473Z,101399.52
2022-10-28T01:35:13.624Z,101401.98
2022-10-28T01:38:09.785Z,101403.48
2022-10-28T01:41:14.892Z,101401.59
2022-10-28T01:44:18.178Z,101400.13
2022-10-28T01:46:49.821Z,101397.40
2022-10-28T01:49:26.293Z,101396.11
2022-10-28T01:51:58.992Z,101390.54
2022-10-28T01:54:32.020Z,101399.23
2022-10-28T01:57:03.284Z,101397.57
2022-10-28T01:59:33.896Z,101400.00
2022-10-28T02:04:30.622Z,101401.17
2022-10-28T02:07:00.910Z,101398.98
2022-10-28T02:09:41.043Z,101398.35
2022-10-28T02:12:32.723Z,101398.35
2022-10-28T02:15:23.983Z,101393.85
2022-10-28T02:18:07.670Z,101391.38
2022-10-28T02:21:06.517Z,101388.02
2022-10-28T02:23:37.227Z,101375.78
2022-10-28T02:26:37.321Z,101375.72
2022-10-28T02:29:25.860Z,101373.79
2022-10-28T02:31:58.608Z,101367.72
2022-10-28T02:34:32.648Z,101369.81
2022-10-28T02:37:06.431Z,101370.36
2022-10-28T02:39:42.049Z,101362.73
2022-10-28T02:42:19.551Z,101355.83
2022-10-28T02:44:59.875Z,101351.41
2022-10-28T02:47:34.340Z,101345.21
2022-10-28T02:50:09.094Z,101339.45
2022-10-28T02:52:37.081Z,101341.41
2022-10-28T02:55:06.641Z,101341.52
2022-10-28T02:57:39.334Z,101343.09
2022-10-28T03:00:11.748Z,101339.17
2022-10-28T03:02:39.602Z,101337.27
2022-10-28T03:05:08.335Z,101336.19
2022-10-28T03:07:36.257Z,101340.21
2022-10-28T03:10:04.923Z,101340.83
2022-10-28T03:12:32.889Z,101344.85
2022-10-28T03:15:01.760Z,101349.27
2022-10-28T03:17:29.678Z,101347.66
2022-10-28T03:19:57.528Z,101345.45
2022-10-28T03:22:25.486Z,101342.76
2022-10-28T03:24:56.803Z,101346.95
2022-10-28T03:27:27.842Z,101346.14
2022-10-28T03:29:55.612Z,101338.95
2022-10-28T03:32:23.459Z,101341.46
2022-10-28T03:34:51.260Z,101341.83
2022-10-28T03:37:19.065Z,101339.86
2022-10-28T03:39:47.328Z,101341.75
2022-10-28T03:42:15.111Z,101341.31
2022-10-28T03:44:42.923Z,101336.52
2022-10-28T03:47:10.705Z,101332.19
2022-10-28T03:49:38.540Z,101330.09
2022-10-28T03:52:06.464Z,101326.84
2022-10-28T03:54:35.190Z,101325.26
2022-10-28T03:57:03.132Z,101325.48
2022-10-28T03:59:30.880Z,101322.80
2022-10-28T04:01:58.755Z,101317.81
2022-10-28T04:04:29.866Z,101317.94
2022-10-28T04:06:58.856Z,101319.52
2022-10-28T04:09:26.733Z,101320.77
2022-10-28T04:11:54.590Z,101322.00
2022-10-28T04:14:22.349Z,101329.80
2022-10-28T04:16:50.191Z,101326.61
2022-10-28T04:19:17.958Z,101326.64
2022-10-28T04:21:45.832Z,101327.40
2022-10-28T04:24:15.668Z,101329.86
2022-10-28T04:26:43.545Z,101328.83
2022-10-28T04:29:11.344Z,101327.18
2022-10-28T04:31:39.131Z,101327.45
2022-10-28T04:34:06.900Z,101326.38
2022-10-28T04:36:34.761Z,101321.37
2022-10-28T04:39:02.837Z,101319.59
2022-10-28T04:41:30.781Z,101319.85
2022-10-28T04:43:58.546Z,101319.83
2022-10-28T04:46:26.694Z,101318.39
2022-10-28T04:48:55.632Z,101312.52
2022-10-28T04:51:24.357Z,101314.26
2022-10-28T04:53:55.826Z,101306.81
2022-10-28T04:56:26.954Z,101299.98
2022-10-28T04:58:55.124Z,101301.67
2022-10-28T05:01:23.270Z,101300.32
2022-10-28T05:03:51.544Z,101300.36
2022-10-28T05:06:19.709Z,101302.32
2022-10-28T05:08:48.005Z,101303.05
2022-10-28T05:11:17.270Z,101304.78
2022-10-28T05:13:45.553Z,101302.10
2022-10-28T05:16:13.918Z,101300.72
2022-10-28T05:18:42.431Z,101298.20
2022-10-28T05:21:10.421Z,101293.29
2022-10-28T05:23:38.723Z,101298.99
2022-10-28T05:26:07.185Z,101293.56
2022-10-28T05:28:35.808Z,101293.23
2022-10-28T05:31:05.989Z,101291.28
2022-10-28T05:33:33.791Z,101284.84
2022-10-28T05:36:04.899Z,101281.64
2022-10-28T05:38:34.675Z,101280.69
2022-10-28T05:41:03.743Z,101275.85
2022-10-28T05:43:34.216Z,101279.84
2022-10-28T05:46:03.959Z,101281.35
2022-10-28T05:48:33.887Z,101278.81
2022-10-28T05:51:02.108Z,101276.70
2022-10-28T05:53:29.868Z,101276.55
2022-10-28T05:55:59.918Z,101271.57
2022-10-28T05:58:27.633Z,101269.61
2022-10-28T06:00:58.509Z,101270.16
2022-10-28T06:03:31.239Z,101268.78
2022-10-28T06:05:59.677Z,101268.81
2022-10-28T06:08:27.869Z,101271.47
2022-10-28T06:10:54.226Z,101271.27
2022-10-28T06:13:22.215Z,101273.76
2022-10-28T06:15:51.614Z,101271.45
2022-10-28T06:18:23.319Z,101271.23
2022-10-28T06:21:25.628Z,101268.89
2022-10-28T06:23:53.304Z,101268.38
2022-10-28T06:26:21.021Z,101266.23
2022-10-28T06:28:48.743Z,101268.16
2022-10-28T06:31:16.549Z,101266.02
2022-10-28T06:33:44.259Z,101263.16
2022-10-28T06:36:12.035Z,101263.68
2022-10-28T06:38:40.230Z,101266.14
2022-10-28T06:41:08.005Z,101267.17
2022-10-28T06:43:35.643Z,101274.44
2022-10-28T06:46:04.144Z,101277.39
2022-10-28T06:48:33.932Z,101277.46
2022-10-28T06:51:01.715Z,101278.60
2022-10-28T06:53:29.374Z,101277.99
2022-10-28T06:55:58.263Z,101274.19
2022-10-28T06:58:26.783Z,101277.66
2022-10-28T07:00:57.503Z,101279.86
2022-10-28T07:03:24.077Z,101282.02
2022-10-28T07:05:51.797Z,101280.48
2022-10-28T07:08:19.985Z,101285.82
2022-10-28T07:10:58.924Z,101289.77
2022-10-28T07:13:27.356Z,101287.85
2022-10-28T07:15:56.963Z,101290.03
2022-10-28T07:18:27.500Z,101283.36
2022-10-28T07:20:58.853Z,101281.71
2022-10-28T07:23:26.855Z,101279.12
2022-10-28T07:25:56.936Z,101276.30
2022-10-28T07:28:26.493Z,101270.76
2022-10-28T07:30:55.181Z,101267.61
2022-10-28T07:33:24.456Z,101268.77
2022-10-28T07:35:52.085Z,101264.66
2022-10-28T07:38:20.309Z,101260.52
2022-10-28T07:40:48.759Z,101260.41
2022-10-28T07:43:16.985Z,101265.05
2022-10-28T07:45:44.734Z,101262.45
2022-10-28T07:48:12.578Z,101265.55
2022-10-28T07:50:41.645Z,101263.18
2022-10-28T07:53:09.411Z,101260.61
2022-10-28T07:55:37.133Z,101256.64
2022-10-28T07:58:05.898Z,101253.73
2022-10-28T08:00:33.567Z,101253.34
2022-10-28T08:03:03.414Z,101254.17
2022-10-28T08:05:31.103Z,101251.95
2022-10-28T08:08:02.323Z,101247.07
2022-10-28T08:10:29.968Z,101245.75
2022-10-28T08:13:01.176Z,101241.73
2022-10-28T08:15:29.871Z,101239.81
2022-10-28T08:17:58.270Z,101244.54
2022-10-28T08:20:26.113Z,101245.02
2022-10-28T08:22:53.836Z,101245.30
2022-10-28T08:25:21.658Z,101244.02
2022-10-28T08:27:49.327Z,101235.86
2022-10-28T08:30:16.967Z,101236.20
2022-10-28T08:32:45.028Z,101231.77
2022-10-28T08:35:12.693Z,101231.26
2022-10-28T08:37:40.381Z,101229.11
2022-10-28T08:40:11.665Z,101228.11
2022-10-28T08:42:42.152Z,101232.33
2022-10-28T08:45:42.444Z,101233.16
2022-10-28T08:48:18.317Z,101233.02
2022-10-28T08:50:53.470Z,101228.48
2022-10-28T08:53:28.478Z,101221.22
2022-10-28T08:56:07.697Z,101218.41
2022-10-28T08:58:39.152Z,101216.05
2022-10-28T09:01:14.086Z,101216.11
2022-10-28T09:03:45.291Z,101219.38
2022-10-28T09:06:13.204Z,101211.77
2022-10-28T09:08:44.654Z,101217.27
2022-10-28T09:11:26.415Z,101218.48
2022-10-28T09:14:22.959Z,101214.23
2022-10-28T09:17:11.322Z,101209.93
2022-10-28T09:19:49.777Z,101214.20
2022-10-28T09:22:57.880Z,101215.98
2022-10-28T09:25:48.743Z,101215.77
2022-10-28T09:28:58.683Z,101212.33
2022-10-28T09:31:41.136Z,101213.33
2022-10-28T09:34:38.824Z,101217.09
2022-10-28T09:37:20.069Z,101215.50
2022-10-28T09:39:53.068Z,101210.91
2022-10-28T09:42:35.206Z,101206.17
2022-10-28T09:45:06.422Z,101208.70
2022-10-28T09:47:41.521Z,101207.45
2022-10-28T09:50:23.548Z,101202.55
2022-10-28T09:52:55.944Z,101203.80
2022-10-28T09:55:23.880Z,101202.05
2022-10-28T09:57:51.903Z,101204.27
2022-10-28T10:00:20.573Z,101203.07
2022-10-28T10:02:53.268Z,101206.45
2022-10-28T10:05:21.051Z,101204.23
2022-10-28T10:08:06.956Z,101205.21
2022-10-28T10:10:45.523Z,101200.64
2022-10-28T10:13:41.216Z,101196.05
2022-10-28T10:16:20.390Z,101186.80
2022-10-28T10:18:51.816Z,101183.67
2022-10-28T10:21:49.680Z,101186.54
2022-10-28T10:24:31.394Z,101192.95
2022-10-28T10:27:02.448Z,101190.36
2022-10-28T10:29:31.748Z,101186.71
2022-10-28T10:32:15.978Z,101188.17
2022-10-28T10:34:56.503Z,101184.42
2022-10-28T10:37:24.857Z,101183.02
2022-10-28T10:40:26.810Z,101180.66
2022-10-28T10:43:18.573Z,101173.89
2022-10-28T10:46:11.201Z,101166.98
2022-10-28T10:48:39.329Z,101165.89
2022-10-28T10:51:27.377Z,101157.94
2022-10-28T10:53:58.080Z,101154.55
2022-10-28T10:56:29.584Z,101151.54
2022-10-28T10:59:30.840Z,101151.59
2022-10-28T11:02:00.082Z,101146.66
2022-10-28T11:04:30.382Z,101150.26
2022-10-28T11:06:58.377Z,101146.45
2022-10-28T11:09:29.150Z,101135.98
2022-10-28T11:11:56.960Z,101137.46
2022-10-28T11:14:30.528Z,101130.21
2022-10-28T11:17:03.789Z,101130.73
2022-10-28T11:19:37.245Z,101123.69
2022-10-28T11:22:30.044Z,101120.05
2022-10-28T11:25:06.920Z,101115.84
2022-10-28T11:28:11.476Z,101119.34
2022-10-28T11:30:39.186Z,101116.78
2022-10-28T11:34:20.425Z,101118.06
2022-10-28T11:37:02.287Z,101119.94
2022-10-28T11:39:48.858Z,101128.73
2022-10-28T11:42:27.807Z,101116.60
2022-10-28T11:45:04.412Z,101117.20
2022-10-28T11:48:17.928Z,101121.88
2022-10-28T11:51:15.656Z,101112.96
2022-10-28T11:53:59.935Z,101109.02
2022-10-28T11:56:32.604Z,101104.23
2022-10-28T11:59:06.428Z,101100.05
2022-10-28T12:02:04.400Z,101097.61
2022-10-28T12:05:14.842Z,101094.25
2022-10-28T12:08:04.454Z,101091.20
2022-10-28T12:10:40.001Z,101088.16
2022-10-28T12:13:10.290Z,101089.98
2022-10-28T12:15:59.812Z,101088.46
2022-10-28T12:18:39.634Z,101089.04
2022-10-28T12:21:24.467Z,101092.14
2022-10-28T12:23:54.011Z,101092.62
2022-10-28T12:26:28.482Z,101089.77
2022-10-28T12:29:24.547Z,101082.48
2022-10-28T12:31:58.941Z,101083.23
2022-10-28T12:37:34.028Z,101069.98
2022-10-28T12:40:28.041Z,101074.27
2022-10-28T12:43:16.208Z,101076.08
2022-10-28T12:45:48.359Z,101068.77
2022-10-28T12:48:48.601Z,101067.15
2022-10-28T12:51:40.376Z,101062.77
2022-10-28T12:54:15.009Z,101059.69
2022-10-28T12:56:50.813Z,101059.44
2022-10-28T12:59:33.403Z,101057.05
2022-10-28T13:02:04.356Z,101047.09
2022-10-28T13:04:32.583Z,101044.23
2022-10-28T13:07:09.102Z,101044.41
2022-10-28T13:10:03.373Z,101046.73
2022-10-28T13:12:59.631Z,101042.80
2022-10-28T13:16:04.436Z,101037.61
2022-10-28T13:19:01.636Z,101035.84
2022-10-28T13:22:17.892Z,101037.09
2022-10-28T13:25:28.644Z,101042.52
2022-10-28T13:28:00.433Z,101039.81
2022-10-28T13:30:32.097Z,101036.10
2022-10-28T13:33:24.318Z,101037.90
2022-10-28T13:38:27.020Z,101043.57
2022-10-28T13:40:57.717Z,101045.92
2022-10-28T13:43:48.657Z,101053.55
2022-10-28T13:46:54.519Z,101058.30
2022-10-28T13:49:48.503Z,101060.06
2022-10-28T13:52:21.266Z,101066.56
2022-10-28T13:54:49.775Z,101073.32
2022-10-28T13:57:28.936Z,101083.73
2022-10-28T14:00:02.797Z,101104.97
2022-10-28T14:02:54.231Z,101117.52
2022-10-28T14:05:38.011Z,101125.25
2022-10-28T14:08:21.427Z,101129.78
2022-10-28T14:11:01.909Z,101127.45
2022-10-28T14:13:34.470Z,101131.52
2022-10-28T14:16:17.152Z,101130.21
2022-10-28T14:19:04.159Z,101131.02
2022-10-28T14:22:02.436Z,101128.94
2022-10-28T14:24:34.924Z,101130.86
2022-10-28T14:27:31.705Z,101125.82
2022-10-28T14:29:59.340Z,101118.20
2022-10-28T14:32:33.098Z,101116.39
2022-10-28T14:35:13.172Z,101106.17
2022-10-28T14:38:24.450Z,101093.41
2022-10-28T14:41:23.465Z,101083.56
2022-10-28T14:44:16.283Z,101077.94
2022-10-28T14:47:22.907Z,101060.39
2022-10-28T14:50:24.790Z,101040.56
2022-10-28T14:53:22.504Z,101042.65
2022-10-28T14:55:58.836Z,101043.09
2022-10-28T14:58:31.377Z,101040.41
2022-10-28T15:01:17.798Z,101032.83
2022-10-28T15:03:46.771Z,101035.70
2022-10-28T15:06:36.365Z,101039.54
2022-10-28T15:09:09.036Z,101033.61
2022-10-28T15:11:36.820Z,101034.60
2022-10-28T15:14:33.351Z,101030.00
2022-10-28T15:17:13.125Z,101027.02
2022-10-28T15:19:41.733Z,101027.19
2022-10-28T15:22:32.178Z,101022.49
2022-10-28T15:25:22.726Z,101025.80
2022-10-28T15:27:52.293Z,101016.96
2022-10-28T15:30:45.832Z,101006.06
2022-10-28T15:33:31.837Z,101000.23
2022-10-28T15:36:23.576Z,100989.67
2022-10-28T15:39:05.540Z,100986.77
2022-10-28T15:41:42.003Z,100989.31
2022-10-28T15:44:35.828Z,100987.11
2022-10-28T15:47:34.156Z,100987.52
2022-10-28T15:50:09.352Z,100978.09
2022-10-28T15:52:40.550Z,100972.13
2022-10-28T15:55:41.144Z,100968.59
2022-10-28T15:58:19.095Z,100967.35
2022-10-28T16:00:55.514Z,100967.88
2022-10-28T16:03:40.000Z,100969.73
2022-10-28T16:06:22.570Z,100971.60
2022-10-28T16:09:17.491Z,100971.02
2022-10-28T16:11:49.880Z,100970.46
2022-10-28T16:14:30.489Z,100970.08
2022-10-28T16:17:20.259Z,100975.77
2022-10-28T16:20:00.276Z,100976.85
2022-10-28T16:22:30.139Z,100975.79
2022-10-28T16:24:57.927Z,100976.65
2022-10-28T16:27:28.761Z,100973.73
2022-10-28T16:29:56.934Z,100974.19
2022-10-28T16:32:36.946Z,100969.96
2022-10-28T16:35:14.643Z,100962.52
2022-10-28T16:37:45.780Z,100961.70
2022-10-28T16:43:02.106Z,100950.80
2022-10-28T16:45:29.754Z,100954.86
2022-10-28T16:47:57.753Z,100951.44
2022-10-28T16:50:25.672Z,100948.36
2022-10-28T16:52:56.157Z,100953.39
2022-10-28T16:55:23.934Z,100958.25
2022-10-28T16:57:51.852Z,100961.13
2022-10-28T17:00:38.296Z,100972.54
2022-10-28T17:03:07.109Z,100974.39
2022-10-28T17:05:35.205Z,100978.36
2022-10-28T17:08:05.918Z,100967.91
2022-10-28T17:10:40.419Z,100967.22
2022-10-28T17:13:13.138Z,100966.42
2022-10-28T17:15:41.598Z,100967.38
2022-10-28T17:18:11.647Z,100969.59
2022-10-28T17:20:39.521Z,100964.98
2022-10-28T17:23:07.387Z,100966.02
2022-10-28T17:25:35.575Z,100970.61
2022-10-28T17:28:03.414Z,100969.91
2022-10-28T17:30:31.679Z,100970.49
2022-10-28T17:32:59.411Z,100974.42
2022-10-28T17:35:27.483Z,100973.33
2022-10-28T17:37:55.402Z,100974.95
2022-10-28T17:40:23.424Z,100983.25
2022-10-28T17:42:51.046Z,100988.45
2022-10-28T17:45:21.146Z,100986.90
2022-10-28T17:47:50.058Z,100984.96
2022-10-28T17:50:35.234Z,100982.89
2022-10-28T17:53:02.919Z,100987.33
2022-10-28T17:55:30.949Z,100981.51
2022-10-28T17:58:16.220Z,100976.66
2022-10-28T18:00:45.576Z,100966.31
2022-10-28T18:03:13.278Z,100963.02
2022-10-28T18:05:40.977Z,100963.52
2022-10-28T18:08:08.618Z,100959.23
2022-10-28T18:10:36.275Z,100953.94
2022-10-28T18:13:03.968Z,100955.83
2022-10-28T18:15:31.619Z,100955.81
2022-10-28T18:17:59.345Z,100953.35
2022-10-28T18:20:27.014Z,100952.11
2022-10-28T18:22:54.821Z,100941.41
2022-10-28T18:25:40.258Z,100938.89
2022-10-28T18:28:07.935Z,100936.41
2022-10-28T18:30:35.654Z,100939.34
2022-10-28T18:33:03.358Z,100931.19
2022-10-28T18:35:48.674Z,100931.46
2022-10-28T18:38:16.610Z,100928.84
2022-10-28T18:41:02.119Z,100924.03
2022-10-28T18:43:29.851Z,100920.69
2022-10-28T18:46:03.730Z,100919.90
2022-10-28T18:48:49.813Z,100926.59
2022-10-28T18:51:17.781Z,100929.11
2022-10-28T18:53:47.906Z,100928.74
2022-10-28T18:56:18.085Z,100924.64
2022-10-28T18:58:49.289Z,100917.33
2022-10-28T19:01:21.240Z,100911.80
2022-10-28T19:03:54.023Z,100909.67
2022-10-28T19:06:22.669Z,100908.40
2022-10-28T19:08:52.674Z,100899.63
2022-10-28T19:11:21.895Z,100896.45
2022-10-28T19:13:49.612Z,100875.77
2022-10-28T19:16:17.281Z,100858.33
2022-10-28T19:18:44.935Z,100856.16
2022-10-28T19:21:14.769Z,100864.00
2022-10-28T19:24:00.198Z,100874.42
2022-10-28T19:26:28.049Z,100885.14
2022-10-28T19:28:55.717Z,100889.06
2022-10-28T19:31:25.410Z,100892.77
2022-10-28T19:33:54.202Z,100893.16
2022-10-28T19:36:26.077Z,100899.91
2022-10-28T19:38:54.891Z,100895.02
2022-10-28T19:41:28.384Z,100901.87
2022-10-28T19:44:01.345Z,100904.02
2022-10-28T19:46:32.953Z,100901.47
2022-10-28T19:49:04.505Z,100899.62
2022-10-28T19:51:41.014Z,100902.51
2022-10-28T19:54:13.514Z,100900.53
2022-10-28T19:56:44.307Z,100902.15
2022-10-28T19:59:11.976Z,100901.46
2022-10-28T20:01:40.997Z,100906.61
2022-10-28T20:04:27.020Z,100905.92
2022-10-28T20:06:54.711Z,100908.46
2022-10-28T20:09:27.878Z,100904.97
2022-10-28T20:11:56.521Z,100901.69
2022-10-28T20:14:24.222Z,100902.80
2022-10-28T20:16:51.932Z,100903.36
2022-10-28T20:19:37.014Z,100917.78
2022-10-28T20:22:22.368Z,100931.08
2022-10-28T20:25:08.581Z,100931.81
2022-10-28T20:27:36.254Z,100923.52
2022-10-28T20:30:04.301Z,100904.96
2022-10-28T20:32:55.504Z,100908.99
2022-10-28T20:35:23.473Z,100909.34
2022-10-28T20:37:54.199Z,100924.84
2022-10-28T20:40:22.297Z,100944.55
2022-10-28T20:42:49.922Z,100946.11
2022-10-28T20:45:17.585Z,100942.22
2022-10-28T20:47:45.231Z,100944.79
2022-10-28T20:50:12.990Z,100933.36
2022-10-28T20:52:41.078Z,100937.48
2022-10-28T20:55:26.646Z,100934.08
2022-10-28T20:57:54.298Z,100928.30
2022-10-28T21:00:39.867Z,100922.34
2022-10-28T21:03:07.623Z,100916.88
2022-10-28T21:05:35.415Z,100916.60
2022-10-28T21:08:03.057Z,100919.70
2022-10-28T21:10:30.805Z,100913.43
2022-10-28T21:12:58.496Z,100911.97
2022-10-28T21:15:26.452Z,100910.08
2022-10-28T21:17:54.460Z,100907.21
2022-10-28T21:20:23.155Z,100900.86
2022-10-28T21:22:50.813Z,100898.06
2022-10-28T21:25:18.476Z,100892.43
2022-10-28T21:28:04.099Z,100890.58
2022-10-28T21:30:32.123Z,100886.16
2022-10-28T21:32:59.752Z,100882.60
2022-10-28T21:35:27.383Z,100887.45
2022-10-28T21:37:56.327Z,100878.65
2022-10-28T21:40:41.711Z,100883.23
2022-10-28T21:43:10.948Z,100879.39
2022-10-28T21:45:38.607Z,100873.29
2022-10-28T21:48:06.600Z,100872.02
2022-10-28T21:50:34.256Z,100869.65
2022-10-28T21:53:04.159Z,100857.34
2022-10-28T21:55:46.013Z,100856.83
2022-10-28T21:58:16.022Z,100853.96
2022-10-28T22:00:44.121Z,100851.55
2022-10-28T22:03:13.235Z,100849.64
2022-10-28T22:05:49.696Z,100845.62
2022-10-28T22:08:17.963Z,100842.80
2022-10-28T22:10:45.611Z,100844.05
2022-10-28T22:13:13.414Z,100848.04
2022-10-28T22:15:41.146Z,100846.80
2022-10-28T22:18:08.867Z,100848.00
2022-10-28T22:20:54.603Z,100849.67
2022-10-28T22:23:22.335Z,100845.52
2022-10-28T22:25:50.127Z,100841.02
2022-10-28T22:28:35.543Z,100836.35
2022-10-28T22:31:08.584Z,100837.41
2022-10-28T22:33:37.134Z,100840.52
2022-10-28T22:36:10.283Z,100839.48
2022-10-28T22:38:38.433Z,100831.88
2022-10-28T22:41:29.496Z,100830.67
2022-10-28T22:43:59.423Z,100832.52
2022-10-28T22:46:30.187Z,100829.48
2022-10-28T22:48:58.084Z,100826.82
2022-10-28T22:51:25.798Z,100823.83
2022-10-28T22:53:53.589Z,100817.80
2022-10-28T22:56:39.187Z,100812.69
2022-10-28T22:59:06.874Z,100807.73
2022-10-28T23:01:34.632Z,100807.72
2022-10-28T23:04:02.514Z,100807.02
2022-10-28T23:06:30.502Z,100808.34
2022-10-28T23:09:15.584Z,100805.06
2022-10-28T23:11:43.423Z,100803.48
2022-10-28T23:14:28.795Z,100801.70
2022-10-28T23:16:56.458Z,100800.60
2022-10-28T23:19:24.086Z,100802.04
2022-10-28T23:21:51.744Z,100799.96
2022-10-28T23:24:19.419Z,100796.11
2022-10-28T23:26:47.117Z,100793.27
2022-10-28T23:29:14.782Z,100787.59
2022-10-28T23:31:42.633Z,100789.64
2022-10-28T23:34:28.261Z,100789.86
2022-10-28T23:37:15.601Z,100791.39
2022-10-28T23:40:01.329Z,100793.45
2022-10-28T23:42:29.204Z,100791.48
2022-10-28T23:44:56.827Z,100787.34
2022-10-28T23:47:42.151Z,100792.01
2022-10-28T23:50:11.051Z,100794.73
2022-10-28T23:52:38.701Z,100788.73
2022-10-28T23:55:06.846Z,100788.95
2022-10-28T23:57:34.530Z,100779.36
